Detalii statie S.C. COSTANDACHE [000011A0]

Toti senzorii

Date Temperatura solului [C]Precipitatii [mm]Voltaj baterie [mV]Leaf Wetness [Min]HC Air temperature [C]HC Relative humidity [%]Punctul de roua [C]
medieminmaxsumaultimatimpmedieminmaxmediemediemin
2020-01-21 22:00:00 2.9 2.8 3 0 6054 0 -0.49 -0.52 -0.46 0 0 0
2020-01-21 22:30:00 2.8 2.8 2.9 0 6082 0 -0.55 -0.59 -0.5 0 0 0
2020-01-21 23:00:00 2.8 2.8 2.9 0 6054 0 -0.71 -0.75 -0.66 0 0 0
2020-01-21 23:30:00 2.8 2.7 2.9 0 6044 0 -0.41 -0.56 -0.28 0 0 0
2020-01-22 00:00:00 2.7 2.7 2.9 0 6044 0 -0.5 -0.69 -0.26 0 0 0
2020-01-22 00:30:00 2.8 1.8 3.4 0 6034 0 -0.81 -0.93 -0.74 0 0 0
2020-01-22 01:00:00 2.8 2.7 3 0 6034 0 -0.94 -1.04 -0.86 0 0 0
2020-01-22 01:30:00 2.7 2.6 2.9 0 6034 0 -1.28 -1.58 -0.95 0 0 0
2020-01-22 02:00:00 2.7 2.7 2.8 0 6024 0 -1.73 -1.76 -1.7 0 0 0
2020-01-22 02:30:00 2.7 2.6 2.8 0 6054 0 -1.98 -2.16 -1.71 0 0 0
2020-01-22 03:00:00 2.7 2.6 2.8 0 6014 0 -2.15 -2.17 -2.14 0 0 0
2020-01-22 03:30:00 2.7 2.6 2.8 0 6014 0 -2.44 -2.72 -2.21 0 0 0
2020-01-22 04:00:00 3 2.6 5.1 0 6044 0 -2.87 -2.95 -2.76 0 0 0
2020-01-22 04:30:00 2.6 2.6 2.8 0 6004 0 -3.03 -3.09 -2.97 0 0 0
2020-01-22 05:00:00 3 2.6 5.1 0 6014 0 -3.08 -3.11 -3.04 0 0 0
2020-01-22 05:30:00 3 2.5 5.1 0 6004 0 -3.11 -3.17 -3.05 0 0 0
2020-01-22 06:00:00 2.6 2.5 2.8 0 6034 0 -3.13 -3.19 -3.08 0 0 0
2020-01-22 06:30:00 2.6 2.5 2.8 0 6034 0 -2.98 -3.04 -2.95 0 0 0
2020-01-22 07:00:00 2.5 2.5 2.6 0 5996 0 -2.99 -3.03 -2.93 0 0 0
2020-01-22 07:30:00 2.5 2.5 2.6 0 6034 0 -2.97 -3.06 -2.9 0 0 0
2020-01-22 08:00:00 2.5 2.4 2.6 0 5996 0 -3.11 -3.17 -3.05 0 0 0
2020-01-22 08:30:00 2.5 2.5 2.6 0 6044 0 -2.86 -3.07 -2.69 0 0 0
2020-01-22 09:00:00 2.5 2.4 2.6 0 6092 0 -2.34 -2.61 -2.07 0 0 0
2020-01-22 09:30:00 2.5 2.5 2.6 0 6132 0 -1.36 -1.82 -1.02 0 0 0
2020-01-22 10:00:00 2.5 2.4 2.6 0 6258 0 -0.29 -0.82 0.2 0 0 0
2020-01-22 10:30:00 2.5 2.4 2.6 0 6258 0 0.59 0.29 0.9 0 0 0
2020-01-22 11:00:00 2.5 2.5 2.6 0 6288 0 1.55 1.12 1.84 0 0 0
2020-01-22 11:30:00 2.9 2.5 5.1 0 6318 0 2.6 2.13 3.1 64.03 0
2020-01-22 12:00:00 2.6 2.5 2.8 0 6318 0 3.93 3.29 4.46 70.77 -0.9 -1.2
2020-01-22 12:30:00 2.7 2.5 3 0 6346 0 5 4.43 5.63 75.85 0.7 -2.7
2020-01-22 13:00:00 2.8 2.8 2.8 0 6288 0 6.24 5.71 6.84 60.71 -0.8 -1.2
2020-01-22 13:30:00 2.9 2.8 3.1 0 6288 0 6.89 6.77 7.03 58.7 -0.6 -0.8
2020-01-22 14:00:00 3 3 3.1 0 6318 0 7.83 7.45 8.24 55.18 -0.6 -0.7
2020-01-22 14:30:00 3.2 3.2 3.3 0 6288 0 7.07 6.8 7.52 56.11 -1 -1.2
2020-01-22 15:00:00 3.9 3.2 6 0 6298 0 7.05 6.87 7.16 55.78 -1.2 -1.6
2020-01-22 15:30:00 4.1 3.6 6.1 0 6258 0 6.81 6.74 6.93 57.77 -0.9 -1.1
2020-01-22 16:00:00 4.2 3.8 6.5 0 6250 0 6.33 6.04 6.64 58.86 -1.1 -1.4
2020-01-22 16:30:00 4.3 3.9 6.3 0 6220 0 5.71 5.51 5.95 61.46 -1.1 -1.2
2020-01-22 17:00:00 3.9 3.9 4 0 6170 0 5.11 4.82 5.38 48.4 0.2 0
2020-01-22 17:30:00 4 3.9 4.2 0 6180 0 4.47 4.23 4.82 0 0 0
2020-01-22 18:00:00 3.9 3.8 4.1 0 6170 0 3.98 3.63 4.26 0 0 0
2020-01-22 18:30:00 3.7 3.6 3.9 0 6170 0 3.3 2.88 3.72 0 0 0
2020-01-22 19:00:00 3.8 3.6 4 0 6162 0 2.63 2.45 2.79 0 0 0
2020-01-22 19:30:00 3.7 3.6 3.9 0 6112 0 2.7 2.27 2.9 0 0 0
2020-01-22 20:00:00 4 3.5 6.1 0 6122 0 1.63 1.15 2.15 0 0 0
2020-01-22 20:30:00 3.5 3.4 3.6 0 6112 0 1.58 1.42 1.71 0 0 0
2020-01-22 21:00:00 3.4 3.3 3.5 0 6122 0 1.13 1.02 1.29 0 0 0
2020-01-22 21:30:00 3.7 3.2 5.8 0 6122 0 0.9 0.58 1.14 0 0 0